createdAt,value
2022-08-27T00:00:34.991Z,98653.47
2022-08-27T00:02:09.377Z,98650.31
2022-08-27T00:03:42.685Z,98655.41
2022-08-27T00:05:18.084Z,98660.91
2022-08-27T00:06:51.343Z,98659.09
2022-08-27T00:08:25.948Z,98656.22
2022-08-27T00:09:59.171Z,98658.19
2022-08-27T00:11:32.582Z,98654.50
2022-08-27T00:13:06.363Z,98654.25
2022-08-27T00:14:40.180Z,98641.53
2022-08-27T00:16:15.751Z,98650.56
2022-08-27T00:17:49.410Z,98652.81
2022-08-27T00:19:23.238Z,98649.69
2022-08-27T00:20:56.532Z,98652.75
2022-08-27T00:22:29.766Z,98655.00
2022-08-27T00:24:04.799Z,98656.06
2022-08-27T00:25:38.524Z,98660.22
2022-08-27T00:27:11.740Z,98667.75
2022-08-27T00:28:47.673Z,98660.41
2022-08-27T00:30:23.619Z,98662.56
2022-08-27T00:31:57.471Z,98656.50
2022-08-27T00:33:30.892Z,98659.00
2022-08-27T00:35:04.095Z,98655.94
2022-08-27T00:36:37.328Z,98662.69
2022-08-27T00:38:10.203Z,98655.63
2022-08-27T00:39:44.964Z,98661.00
2022-08-27T00:41:19.446Z,98660.28
2022-08-27T00:42:52.797Z,98667.09
2022-08-27T00:44:27.756Z,98665.38
2022-08-27T00:46:16.847Z,98665.66
2022-08-27T00:47:54.529Z,98666.66
2022-08-27T00:49:31.342Z,98665.22
2022-08-27T00:51:05.731Z,98672.56
2022-08-27T00:52:46.718Z,98665.47
2022-08-27T00:54:20.215Z,98663.25
2022-08-27T00:55:59.976Z,98671.88
2022-08-27T00:57:35.040Z,98671.88
2022-08-27T00:59:08.190Z,98672.03
2022-08-27T01:00:41.627Z,98671.31
2022-08-27T01:02:20.411Z,98675.13
2022-08-27T01:04:06.046Z,98678.19
2022-08-27T01:05:40.482Z,98679.53
2022-08-27T01:07:14.654Z,98672.41
2022-08-27T01:08:52.416Z,98676.03
2022-08-27T01:10:29.980Z,98663.63
2022-08-27T01:12:05.580Z,98665.06
2022-08-27T01:13:58.758Z,98675.28
2022-08-27T01:15:33.957Z,98673.84
2022-08-27T01:17:10.465Z,98675.78
2022-08-27T01:18:44.581Z,98674.09
2022-08-27T01:20:21.312Z,98679.47
2022-08-27T01:22:01.203Z,98676.03
2022-08-27T01:23:39.788Z,98677.03
2022-08-27T01:25:16.986Z,98681.53
2022-08-27T01:26:50.974Z,98676.28
2022-08-27T01:28:35.864Z,98667.53
2022-08-27T01:30:14.067Z,98676.56
2022-08-27T01:31:48.359Z,98676.56
2022-08-27T01:33:23.818Z,98667.06
2022-08-27T01:34:57.951Z,98673.41
2022-08-27T01:36:32.087Z,98673.66
2022-08-27T01:38:06.150Z,98681.56
2022-08-27T01:39:44.639Z,98673.66
2022-08-27T01:41:20.710Z,98676.31
2022-08-27T01:42:56.684Z,98677.06
2022-08-27T01:44:28.877Z,98674.13
2022-08-27T01:46:02.141Z,98670.00
2022-08-27T01:47:36.846Z,98672.28
2022-08-27T01:49:11.431Z,98680.22
2022-08-27T01:50:44.469Z,98683.63
2022-08-27T01:52:20.311Z,98679.97
2022-08-27T01:53:54.257Z,98679.25
2022-08-27T01:55:27.227Z,98677.53
2022-08-27T01:57:01.957Z,98673.88
2022-08-27T01:58:35.310Z,98675.84
2022-08-27T02:00:12.612Z,98687.81
2022-08-27T02:01:45.906Z,98677.97
2022-08-27T02:03:19.413Z,98688.56
2022-08-27T02:04:52.839Z,98682.34
2022-08-27T02:06:26.288Z,98686.34
2022-08-27T02:07:59.208Z,98675.88
2022-08-27T02:09:33.295Z,98679.00
2022-08-27T02:11:08.288Z,98677.84
2022-08-27T02:12:43.269Z,98678.09
2022-08-27T02:14:17.216Z,98674.31
2022-08-27T02:15:50.694Z,98677.38
2022-08-27T02:17:23.887Z,98682.50
2022-08-27T02:18:57.483Z,98684.72
2022-08-27T02:20:31.359Z,98687.63
2022-08-27T02:22:04.670Z,98683.25
2022-08-27T02:23:37.938Z,98674.00
2022-08-27T02:25:14.101Z,98688.09
2022-08-27T02:26:47.467Z,98692.00
2022-08-27T02:28:22.450Z,98686.66
2022-08-27T02:29:55.877Z,98688.22
2022-08-27T02:31:29.595Z,98689.81
2022-08-27T02:33:04.447Z,98685.31
2022-08-27T02:34:38.195Z,98684.94
2022-08-27T02:36:11.995Z,98683.50
2022-08-27T02:37:47.151Z,98674.69
2022-08-27T02:39:20.552Z,98687.97
2022-08-27T02:40:54.064Z,98681.75
2022-08-27T02:42:27.437Z,98684.44
2022-08-27T02:44:02.796Z,98688.72
2022-08-27T02:45:41.055Z,98677.63
2022-08-27T02:47:14.428Z,98679.84
2022-08-27T02:48:47.715Z,98676.28
2022-08-27T02:50:22.191Z,98689.09
2022-08-27T02:52:00.294Z,98683.75
2022-08-27T02:53:34.653Z,98688.50
2022-08-27T02:55:08.945Z,98677.63
2022-08-27T02:56:42.761Z,98678.63
2022-08-27T02:58:17.005Z,98684.72
2022-08-27T02:59:52.719Z,98679.84
2022-08-27T03:01:26.131Z,98689.34
2022-08-27T03:02:59.916Z,98686.19
2022-08-27T03:04:33.230Z,98699.06
2022-08-27T03:06:06.678Z,98692.25
2022-08-27T03:07:40.393Z,98692.50
2022-08-27T03:09:14.562Z,98703.47
2022-08-27T03:10:46.884Z,98682.28
2022-08-27T03:12:20.255Z,98694.31
2022-08-27T03:13:56.160Z,98697.56
2022-08-27T03:15:31.295Z,98695.66
2022-08-27T03:17:18.557Z,98702.94
2022-08-27T03:18:51.828Z,98702.94
2022-08-27T03:20:25.497Z,98701.00
2022-08-27T03:21:59.456Z,98706.13
2022-08-27T03:23:34.191Z,98713.19
2022-08-27T03:25:08.469Z,98711.72
2022-08-27T03:26:41.797Z,98711.94
2022-08-27T03:28:30.504Z,98710.47
2022-08-27T03:30:04.199Z,98714.13
2022-08-27T03:31:38.969Z,98712.19
2022-08-27T03:33:12.176Z,98709.97
2022-08-27T03:34:45.845Z,98714.56
2022-08-27T03:36:19.040Z,98717.25
2022-08-27T03:37:51.686Z,98715.53
2022-08-27T03:39:24.927Z,98714.78
2022-08-27T03:40:58.863Z,98719.31
2022-08-27T03:42:31.088Z,98712.50
2022-08-27T03:44:04.665Z,98724.03
2022-08-27T03:46:00.792Z,98718.06
2022-08-27T03:47:33.369Z,98727.69
2022-08-27T03:49:06.918Z,98723.31
2022-08-27T03:50:41.651Z,98723.81
2022-08-27T03:52:15.119Z,98733.66
2022-08-27T03:53:49.244Z,98738.16
2022-08-27T03:55:22.575Z,98734.84
2022-08-27T03:56:54.855Z,98734.97
2022-08-27T03:58:28.349Z,98721.44
2022-08-27T04:00:01.599Z,98736.06
2022-08-27T04:01:35.209Z,98724.97
2022-08-27T04:03:09.919Z,98728.84
2022-08-27T04:04:43.222Z,98731.63
2022-08-27T04:06:16.814Z,98739.34
2022-08-27T04:07:50.666Z,98742.50
2022-08-27T04:09:23.951Z,98742.16
2022-08-27T04:10:57.398Z,98743.00
2022-08-27T04:12:31.317Z,98743.13
2022-08-27T04:14:06.947Z,98732.44
2022-08-27T04:15:58.041Z,98731.78
2022-08-27T04:17:31.283Z,98744.94
2022-08-27T04:19:06.315Z,98742.28
2022-08-27T04:20:39.699Z,98738.63
2022-08-27T04:22:13.082Z,98751.03
2022-08-27T04:23:46.228Z,98749.31
2022-08-27T04:25:19.992Z,98746.41
2022-08-27T04:26:52.182Z,98751.56
2022-08-27T04:28:25.537Z,98749.47
2022-08-27T04:29:58.598Z,98752.03
2022-08-27T04:31:32.620Z,98757.81
2022-08-27T04:33:05.896Z,98755.53
2022-08-27T04:34:41.143Z,98761.59
2022-08-27T04:36:14.381Z,98760.63
2022-08-27T04:37:47.910Z,98757.84
2022-08-27T04:39:21.045Z,98755.41
2022-08-27T04:41:11.580Z,98759.44
2022-08-27T04:42:45.662Z,98765.19
2022-08-27T04:44:18.343Z,98760.19
2022-08-27T04:45:51.796Z,98742.66
2022-08-27T04:47:25.024Z,98754.16
2022-08-27T04:48:58.638Z,98754.28
2022-08-27T04:50:33.747Z,98755.22
2022-08-27T04:52:07.243Z,98748.06
2022-08-27T04:53:40.486Z,98756.34
2022-08-27T04:55:14.131Z,98747.09
2022-08-27T04:56:47.672Z,98754.88
2022-08-27T04:58:22.413Z,98751.28
2022-08-27T04:59:57.046Z,98752.06
2022-08-27T05:01:31.937Z,98755.13
2022-08-27T05:03:05.900Z,98750.81
2022-08-27T05:04:40.793Z,98758.00
2022-08-27T05:06:14.816Z,98761.66
2022-08-27T05:07:48.025Z,98759.22
2022-08-27T05:09:21.902Z,98761.88
2022-08-27T05:10:58.658Z,98770.72
2022-08-27T05:12:31.875Z,98763.94
2022-08-27T05:14:06.003Z,98762.47
2022-08-27T05:15:39.644Z,98756.78
2022-08-27T05:17:12.862Z,98750.75
2022-08-27T05:18:48.306Z,98759.91
2022-08-27T05:20:22.886Z,98753.97
2022-08-27T05:21:58.300Z,98753.69
2022-08-27T05:23:32.581Z,98757.75
2022-08-27T05:25:11.369Z,98755.06
2022-08-27T05:26:45.552Z,98759.91
2022-08-27T05:28:21.830Z,98760.00
2022-08-27T05:30:01.545Z,98756.84
2022-08-27T05:31:35.331Z,98755.25
2022-08-27T05:33:08.958Z,98747.22
2022-08-27T05:34:43.343Z,98747.81
2022-08-27T05:36:21.220Z,98749.75
2022-08-27T05:37:55.728Z,98755.56
2022-08-27T05:39:29.310Z,98750.59
2022-08-27T05:41:08.656Z,98751.31
2022-08-27T05:42:43.191Z,98741.16
2022-08-27T05:44:41.051Z,98745.53
2022-08-27T05:46:17.447Z,98754.41
2022-08-27T05:47:50.895Z,98740.50
2022-08-27T05:49:24.164Z,98756.75
2022-08-27T05:50:56.701Z,98739.13
2022-08-27T05:52:30.338Z,98751.63
2022-08-27T05:54:09.023Z,98736.69
2022-08-27T05:55:43.695Z,98738.72
2022-08-27T05:57:16.932Z,98740.38
2022-08-27T05:59:09.469Z,98735.34
2022-08-27T06:01:02.224Z,98724.44
2022-08-27T06:02:37.443Z,98732.56
2022-08-27T06:04:11.130Z,98731.19
2022-08-27T06:05:50.688Z,98726.03
2022-08-27T06:07:24.020Z,98730.09
2022-08-27T06:08:57.246Z,98726.56
2022-08-27T06:10:32.374Z,98729.91
2022-08-27T06:12:06.282Z,98720.94
2022-08-27T06:13:39.676Z,98727.69
2022-08-27T06:15:16.964Z,98727.69
2022-08-27T06:16:49.758Z,98729.50
2022-08-27T06:18:23.038Z,98733.13
2022-08-27T06:19:56.424Z,98727.66
2022-08-27T06:21:28.631Z,98734.91
2022-08-27T06:23:02.419Z,98730.75
2022-08-27T06:24:36.485Z,98730.06
2022-08-27T06:26:13.753Z,98732.69
2022-08-27T06:27:47.015Z,98736.47
2022-08-27T06:29:20.674Z,98740.59
2022-08-27T06:30:53.972Z,98737.69
2022-08-27T06:32:27.211Z,98735.09
2022-08-27T06:34:02.927Z,98733.53
2022-08-27T06:35:41.059Z,98728.84
2022-08-27T06:37:14.300Z,98730.16
2022-08-27T06:38:49.471Z,98735.53
2022-08-27T06:40:23.411Z,98728.31
2022-08-27T06:41:58.770Z,98738.91
2022-08-27T06:43:32.082Z,98734.03
2022-08-27T06:45:06.177Z,98738.63
2022-08-27T06:46:40.286Z,98736.84
2022-08-27T06:48:14.104Z,98730.97
2022-08-27T06:49:47.369Z,98717.84
2022-08-27T06:51:24.530Z,98730.94
2022-08-27T06:52:57.840Z,98731.28
2022-08-27T06:54:31.342Z,98723.69
2022-08-27T06:56:05.250Z,98730.13
2022-08-27T06:57:39.827Z,98729.72
2022-08-27T06:59:16.243Z,98726.50
2022-08-27T07:00:51.092Z,98721.09
2022-08-27T07:02:24.332Z,98724.25
2022-08-27T07:03:58.598Z,98723.97
2022-08-27T07:05:31.975Z,98723.75
2022-08-27T07:07:06.107Z,98727.09
2022-08-27T07:08:39.658Z,98725.50
2022-08-27T07:10:13.122Z,98725.13
2022-08-27T07:11:46.367Z,98730.28
2022-08-27T07:13:21.513Z,98721.00
2022-08-27T07:14:54.792Z,98726.91
2022-08-27T07:16:29.391Z,98725.88
2022-08-27T07:18:04.888Z,98735.19
2022-08-27T07:19:40.927Z,98728.66
2022-08-27T07:21:14.719Z,98731.16
2022-08-27T07:22:49.191Z,98733.69
2022-08-27T07:24:22.376Z,98731.59
2022-08-27T07:25:55.992Z,98732.44
2022-08-27T07:27:29.138Z,98728.63
2022-08-27T07:29:03.994Z,98730.75
2022-08-27T07:30:37.775Z,98737.03
2022-08-27T07:32:11.511Z,98731.94
2022-08-27T07:33:51.350Z,98730.84
2022-08-27T07:35:25.490Z,98727.69
2022-08-27T07:36:58.721Z,98719.06
2022-08-27T07:38:32.272Z,98734.84
2022-08-27T07:40:06.923Z,98734.22
2022-08-27T07:41:53.973Z,98722.16
2022-08-27T07:43:44.996Z,98730.56
2022-08-27T07:45:19.848Z,98726.97
2022-08-27T07:46:53.273Z,98731.81
2022-08-27T07:48:27.996Z,98725.56
2022-08-27T07:50:01.350Z,98734.88
2022-08-27T07:51:37.528Z,98722.28
2022-08-27T07:53:11.181Z,98723.56
2022-08-27T07:54:44.586Z,98716.75
2022-08-27T07:56:18.316Z,98720.47
2022-08-27T07:57:52.696Z,98727.56
2022-08-27T07:59:27.464Z,98730.25
2022-08-27T08:01:02.230Z,98719.78
2022-08-27T08:02:35.603Z,98720.28
2022-08-27T08:04:10.109Z,98714.66
2022-08-27T08:05:45.500Z,98716.59
2022-08-27T08:07:18.834Z,98708.03
2022-08-27T08:08:52.490Z,98713.13
2022-08-27T08:10:26.144Z,98712.78
2022-08-27T08:11:59.508Z,98713.63
2022-08-27T08:13:32.693Z,98708.59
2022-08-27T08:15:07.791Z,98717.75
2022-08-27T08:16:42.688Z,98713.00
2022-08-27T08:18:15.945Z,98713.63
2022-08-27T08:20:15.504Z,98712.66
2022-08-27T08:21:43.974Z,98706.72
2022-08-27T08:23:17.369Z,98709.72
2022-08-27T08:24:50.624Z,98705.97
2022-08-27T08:26:24.263Z,98700.59
2022-08-27T08:27:58.532Z,98701.66
2022-08-27T08:29:33.568Z,98697.47
2022-08-27T08:31:07.801Z,98700.63
2022-08-27T08:32:43.427Z,98700.41
2022-08-27T08:34:17.051Z,98687.28
2022-08-27T08:35:51.636Z,98701.16
2022-08-27T08:37:25.049Z,98698.56
2022-08-27T08:38:59.025Z,98705.13
2022-08-27T08:40:36.394Z,98698.56
2022-08-27T08:42:24.800Z,98678.47
2022-08-27T08:44:01.090Z,98698.91
2022-08-27T08:45:42.911Z,98693.22
2022-08-27T08:47:20.086Z,98690.94
2022-08-27T08:48:59.995Z,98690.75
2022-08-27T08:50:39.308Z,98703.19
2022-08-27T08:52:31.114Z,98689.28
2022-08-27T08:54:09.574Z,98693.88
2022-08-27T08:55:48.323Z,98699.78
2022-08-27T08:57:28.064Z,98692.72
2022-08-27T08:59:04.869Z,98694.09
2022-08-27T09:00:39.962Z,98692.13
2022-08-27T09:02:18.697Z,98689.63
2022-08-27T09:03:57.497Z,98694.09
2022-08-27T09:05:31.162Z,98686.28
2022-08-27T09:07:09.147Z,98692.25
2022-08-27T09:08:44.118Z,98681.34
2022-08-27T09:10:25.538Z,98685.59
2022-08-27T09:12:02.324Z,98691.22
2022-08-27T09:13:41.419Z,98684.31
2022-08-27T09:15:18.262Z,98686.28
2022-08-27T09:16:56.256Z,98676.06
2022-08-27T09:18:30.276Z,98676.66
2022-08-27T09:20:06.789Z,98682.41
2022-08-27T09:21:50.038Z,98676.84
2022-08-27T09:23:30.356Z,98675.13
2022-08-27T09:25:12.146Z,98675.13
2022-08-27T09:26:46.592Z,98679.53
2022-08-27T09:28:41.283Z,98674.16
2022-08-27T09:30:21.953Z,98669.41
2022-08-27T09:31:58.217Z,98661.91
2022-08-27T09:33:44.461Z,98663.97
2022-08-27T09:35:29.247Z,98670.97
2022-08-27T09:37:07.549Z,98668.91
2022-08-27T09:38:52.693Z,98669.03
2022-08-27T09:40:38.428Z,98672.84
2022-08-27T09:42:26.978Z,98669.84
2022-08-27T09:44:02.205Z,98669.13
2022-08-27T09:45:36.565Z,98671.56
2022-08-27T09:47:16.239Z,98660.84
2022-08-27T09:48:49.612Z,98667.19
2022-08-27T09:50:39.551Z,98663.09
2022-08-27T09:52:32.269Z,98654.38
2022-08-27T09:54:12.339Z,98664.16
2022-08-27T09:55:49.166Z,98662.78
2022-08-27T09:57:34.436Z,98657.06
2022-08-27T09:59:10.292Z,98655.41
2022-08-27T10:00:43.742Z,98660.28
2022-08-27T10:02:20.079Z,98662.69
2022-08-27T10:04:05.732Z,98648.56
2022-08-27T10:05:50.695Z,98653.59
2022-08-27T10:07:43.555Z,98651.41
2022-08-27T10:09:21.782Z,98658.06
2022-08-27T10:10:58.534Z,98662.31
2022-08-27T10:12:36.988Z,98656.47
2022-08-27T10:14:16.287Z,98654.59
2022-08-27T10:16:07.561Z,98657.38
2022-08-27T10:17:51.199Z,98652.44
2022-08-27T10:19:37.100Z,98650.88
2022-08-27T10:21:18.799Z,98654.31
2022-08-27T10:23:03.208Z,98660.88
2022-08-27T10:24:46.790Z,98633.72
2022-08-27T10:26:30.787Z,98646.03
2022-08-27T10:28:21.003Z,98643.84
2022-08-27T10:30:03.421Z,98640.38
2022-08-27T10:31:42.129Z,98648.63
2022-08-27T10:33:23.881Z,98645.81
2022-08-27T10:35:09.427Z,98648.47
2022-08-27T10:36:54.962Z,98640.84
2022-08-27T10:38:35.358Z,98635.66
2022-08-27T10:40:16.145Z,98642.75
2022-08-27T10:41:56.060Z,98649.94
2022-08-27T10:44:06.840Z,98644.50
2022-08-27T10:45:48.916Z,98642.44
2022-08-27T10:47:37.587Z,98642.41
2022-08-27T10:49:21.410Z,98639.72
2022-08-27T10:51:01.982Z,98647.91
2022-08-27T10:52:43.305Z,98649.38
2022-08-27T10:54:26.903Z,98642.28
2022-08-27T10:56:11.668Z,98645.13
2022-08-27T10:58:15.550Z,98648.06
2022-08-27T10:59:57.870Z,98642.84
2022-08-27T11:01:42.135Z,98645.69
2022-08-27T11:03:21.417Z,98646.59
2022-08-27T11:05:00.889Z,98645.34
2022-08-27T11:06:40.175Z,98652.59
2022-08-27T11:08:23.062Z,98657.13
2022-08-27T11:09:59.792Z,98651.84
2022-08-27T11:13:38.671Z,98656.06
2022-08-27T11:15:16.962Z,98646.78
2022-08-27T11:16:56.470Z,98648.78
2022-08-27T11:18:38.603Z,98641.41
2022-08-27T11:20:16.538Z,98641.88
2022-08-27T11:22:00.218Z,98649.91
2022-08-27T11:23:49.579Z,98645.28
2022-08-27T11:25:42.850Z,98649.94
2022-08-27T11:27:23.155Z,98646.56
2022-08-27T11:29:01.991Z,98644.03
2022-08-27T11:30:45.417Z,98645.44
2022-08-27T11:32:30.661Z,98641.88
2022-08-27T11:34:10.823Z,98639.63
2022-08-27T11:36:03.125Z,98639.78
2022-08-27T11:37:54.681Z,98645.28
2022-08-27T11:39:51.097Z,98639.34
2022-08-27T11:41:55.423Z,98637.56
2022-08-27T11:43:34.247Z,98636.59
2022-08-27T11:45:11.288Z,98641.88
2022-08-27T11:46:47.144Z,98641.50
2022-08-27T11:48:25.328Z,98636.25
2022-08-27T11:50:01.275Z,98632.25
2022-08-27T11:51:36.808Z,98630.16
2022-08-27T11:53:10.131Z,98634.78
2022-08-27T11:54:50.267Z,98638.13
2022-08-27T11:56:38.945Z,98624.66
2022-08-27T11:58:27.130Z,98631.81
2022-08-27T12:00:12.889Z,98626.75
2022-08-27T12:01:46.401Z,98624.41
2022-08-27T12:03:28.358Z,98615.72
2022-08-27T12:05:11.083Z,98625.78
2022-08-27T12:06:51.328Z,98619.22
2022-08-27T12:08:31.759Z,98623.22
2022-08-27T12:10:22.192Z,98617.28
2022-08-27T12:12:04.685Z,98618.78
2022-08-27T12:13:43.394Z,98609.47
2022-08-27T12:15:22.361Z,98612.16
2022-08-27T12:17:11.914Z,98609.56
2022-08-27T12:18:57.679Z,98608.69
2022-08-27T12:20:44.568Z,98607.84
2022-08-27T12:22:53.512Z,98601.88
2022-08-27T12:24:49.940Z,98607.41
2022-08-27T12:26:33.512Z,98596.63
2022-08-27T12:28:09.470Z,98600.59
2022-08-27T12:29:49.990Z,98603.88
2022-08-27T12:31:25.132Z,98603.72
2022-08-27T12:33:00.746Z,98605.59
2022-08-27T12:34:44.063Z,98608.50
2022-08-27T12:36:27.566Z,98603.44
2022-08-27T12:38:13.586Z,98592.44
2022-08-27T12:39:49.840Z,98603.63
2022-08-27T12:41:32.061Z,98599.63
2022-08-27T12:43:07.890Z,98595.41
2022-08-27T12:44:41.268Z,98597.94
2022-08-27T12:46:17.340Z,98586.22
2022-08-27T12:47:51.421Z,98589.38
2022-08-27T12:49:38.199Z,98593.56
2022-08-27T12:51:17.478Z,98594.94
2022-08-27T12:53:19.751Z,98592.63
2022-08-27T12:55:05.015Z,98586.28
2022-08-27T12:56:56.627Z,98590.47
2022-08-27T12:58:45.072Z,98593.47
2022-08-27T13:00:22.095Z,98587.97
2022-08-27T13:02:15.335Z,98596.91
2022-08-27T13:03:51.985Z,98585.56
2022-08-27T13:05:26.421Z,98583.47
2022-08-27T13:06:59.630Z,98571.69
2022-08-27T13:08:35.712Z,98577.19
2022-08-27T13:10:15.627Z,98568.78
2022-08-27T13:11:55.720Z,98578.41
2022-08-27T13:13:29.030Z,98583.25
2022-08-27T13:15:08.110Z,98578.91
2022-08-27T13:16:48.835Z,98580.16
2022-08-27T13:18:22.786Z,98584.44
2022-08-27T13:20:00.351Z,98567.06
2022-08-27T13:21:33.894Z,98578.16
2022-08-27T13:23:17.273Z,98580.22
2022-08-27T13:24:57.253Z,98573.44
2022-08-27T13:26:34.113Z,98573.84
2022-08-27T13:28:14.602Z,98582.69
2022-08-27T13:29:48.242Z,98577.38
2022-08-27T13:31:23.936Z,98576.75
2022-08-27T13:32:58.787Z,98575.00
2022-08-27T13:34:37.312Z,98575.41
2022-08-27T13:36:11.761Z,98578.97
2022-08-27T13:37:49.474Z,98573.88
2022-08-27T13:39:23.105Z,98568.97
2022-08-27T13:40:59.435Z,98574.94
2022-08-27T13:42:33.850Z,98575.78
2022-08-27T13:44:11.906Z,98574.63
2022-08-27T13:45:51.620Z,98566.50
2022-08-27T13:47:26.854Z,98567.22
2022-08-27T13:49:01.719Z,98564.31
2022-08-27T13:50:36.851Z,98571.03
2022-08-27T13:52:25.136Z,98565.09
2022-08-27T13:54:13.707Z,98575.63
2022-08-27T13:55:48.004Z,98565.56
2022-08-27T13:57:26.086Z,98568.44
2022-08-27T13:59:12.447Z,98570.47
2022-08-27T14:00:46.225Z,98570.03
2022-08-27T14:02:27.868Z,98574.44
2022-08-27T14:04:02.845Z,98572.91
2022-08-27T14:05:37.107Z,98572.66
2022-08-27T14:07:14.283Z,98570.13
2022-08-27T14:08:47.520Z,98579.00
2022-08-27T14:10:34.120Z,98580.22
2022-08-27T14:12:10.865Z,98577.63
2022-08-27T14:13:47.452Z,98577.69
2022-08-27T14:15:34.702Z,98581.13
2022-08-27T14:17:22.117Z,98571.19
2022-08-27T14:18:59.486Z,98578.22
2022-08-27T14:20:33.155Z,98586.31
2022-08-27T14:22:06.649Z,98577.06
2022-08-27T14:23:40.233Z,98581.06
2022-08-27T14:25:15.158Z,98574.41
2022-08-27T14:26:50.824Z,98578.38
2022-08-27T14:28:24.155Z,98581.34
2022-08-27T14:29:57.799Z,98572.09
2022-08-27T14:31:32.579Z,98578.09
2022-08-27T14:33:05.902Z,98579.59
2022-08-27T14:34:39.302Z,98586.38
2022-08-27T14:36:13.586Z,98572.69
2022-08-27T14:37:47.503Z,98577.38
2022-08-27T14:39:20.682Z,98576.31
2022-08-27T14:41:01.732Z,98574.41
2022-08-27T14:42:35.551Z,98581.13
2022-08-27T14:44:09.913Z,98583.63
2022-08-27T14:45:45.287Z,98577.28
2022-08-27T14:47:20.816Z,98586.97
2022-08-27T14:48:56.013Z,98587.88
2022-08-27T14:50:29.259Z,98579.41
2022-08-27T14:52:03.282Z,98583.66
2022-08-27T14:53:38.269Z,98576.72
2022-08-27T14:55:14.492Z,98581.13
2022-08-27T14:56:47.738Z,98578.59
2022-08-27T14:58:54.125Z,98579.47
2022-08-27T15:00:27.974Z,98582.28
2022-08-27T15:02:02.585Z,98580.84
2022-08-27T15:03:39.905Z,98573.50
2022-08-27T15:05:13.270Z,98573.50
2022-08-27T15:06:46.614Z,98578.34
2022-08-27T15:08:25.715Z,98585.34
2022-08-27T15:10:00.998Z,98583.00
2022-08-27T15:11:36.770Z,98579.81
2022-08-27T15:13:11.541Z,98577.50
2022-08-27T15:14:44.995Z,98582.34
2022-08-27T15:16:27.072Z,98589.72
2022-08-27T15:18:00.309Z,98588.47
2022-08-27T15:19:35.509Z,98586.56
2022-08-27T15:21:08.881Z,98580.88
2022-08-27T15:22:44.374Z,98583.41
2022-08-27T15:24:20.520Z,98585.31
2022-08-27T15:25:54.105Z,98580.88
2022-08-27T15:27:37.942Z,98590.38
2022-08-27T15:29:12.093Z,98589.72
2022-08-27T15:30:45.536Z,98581.31
2022-08-27T15:32:27.851Z,98585.13
2022-08-27T15:34:02.209Z,98581.75
2022-08-27T15:35:36.852Z,98579.81
2022-08-27T15:37:10.362Z,98582.56
2022-08-27T15:38:43.798Z,98580.03
2022-08-27T15:40:19.716Z,98579.66
2022-08-27T15:42:08.610Z,98580.88
2022-08-27T15:43:42.091Z,98583.03
2022-08-27T15:45:16.266Z,98581.34
2022-08-27T15:46:51.000Z,98598.00
2022-08-27T15:48:24.544Z,98583.63
2022-08-27T15:49:58.163Z,98585.78
2022-08-27T15:51:36.102Z,98580.06
2022-08-27T15:53:10.675Z,98589.38
2022-08-27T15:54:44.658Z,98586.41
2022-08-27T15:56:19.819Z,98586.03
2022-08-27T15:57:55.674Z,98586.88
2022-08-27T15:59:29.322Z,98588.56
2022-08-27T16:01:07.771Z,98578.44
2022-08-27T16:02:42.822Z,98582.63
2022-08-27T16:04:17.666Z,98578.44
2022-08-27T16:05:51.030Z,98586.03
2022-08-27T16:07:26.087Z,98582.25
2022-08-27T16:08:59.567Z,98585.63
2022-08-27T16:10:33.518Z,98583.50
2022-08-27T16:12:06.459Z,98582.25
2022-08-27T16:13:39.701Z,98592.59
2022-08-27T16:15:14.364Z,98590.50
2022-08-27T16:16:50.375Z,98589.47
2022-08-27T16:18:27.841Z,98585.28
2022-08-27T16:20:01.634Z,98589.50
2022-08-27T16:21:36.900Z,98592.00
2022-08-27T16:23:11.587Z,98596.88
2022-08-27T16:24:45.044Z,98585.28
2022-08-27T16:26:18.501Z,98599.19
2022-08-27T16:27:53.514Z,98602.34
2022-08-27T16:29:26.884Z,98595.81
2022-08-27T16:31:00.323Z,98599.19
2022-08-27T16:32:33.794Z,98591.81
2022-08-27T16:34:15.561Z,98602.97
2022-08-27T16:35:49.195Z,98599.13
2022-08-27T16:37:22.798Z,98604.16
2022-08-27T16:38:57.827Z,98592.72
2022-08-27T16:40:30.482Z,98602.09
2022-08-27T16:42:04.310Z,98594.28
2022-08-27T16:43:37.533Z,98598.59
2022-08-27T16:45:14.195Z,98597.66
2022-08-27T16:46:47.820Z,98598.41
2022-08-27T16:48:39.450Z,98608.88
2022-08-27T16:50:29.813Z,98606.47
2022-08-27T16:52:04.399Z,98603.22
2022-08-27T16:53:39.956Z,98603.81
2022-08-27T16:55:15.062Z,98607.94
2022-08-27T16:56:48.530Z,98613.16
2022-08-27T16:58:24.688Z,98618.88
2022-08-27T16:59:58.057Z,98617.97
2022-08-27T17:01:31.689Z,98610.41
2022-08-27T17:03:05.721Z,98629.19
2022-08-27T17:04:42.359Z,98624.81
2022-08-27T17:06:17.921Z,98616.63
2022-08-27T17:07:51.330Z,98622.75
2022-08-27T17:09:24.546Z,98628.06
2022-08-27T17:10:59.281Z,98630.91
2022-08-27T17:12:32.875Z,98626.47
2022-08-27T17:14:06.225Z,98619.59
2022-08-27T17:15:39.721Z,98632.91
2022-08-27T17:17:13.348Z,98634.06
2022-08-27T17:18:47.545Z,98637.41
2022-08-27T17:20:20.745Z,98632.88
2022-08-27T17:21:55.068Z,98636.72
2022-08-27T17:23:34.052Z,98638.72
2022-08-27T17:25:08.491Z,98634.25
2022-08-27T17:26:43.134Z,98644.56
2022-08-27T17:28:16.472Z,98649.38
2022-08-27T17:29:50.069Z,98644.66
2022-08-27T17:31:28.383Z,98649.50
2022-08-27T17:33:01.865Z,98648.16
2022-08-27T17:34:35.695Z,98657.31
2022-08-27T17:36:10.596Z,98661.41
2022-08-27T17:37:44.607Z,98671.06
2022-08-27T17:39:18.002Z,98661.75
2022-08-27T17:40:52.714Z,98664.47
2022-08-27T17:42:28.218Z,98673.38
2022-08-27T17:44:04.377Z,98675.16
2022-08-27T17:45:37.687Z,98681.63
2022-08-27T17:47:11.178Z,98685.38
2022-08-27T17:48:44.632Z,98686.75
2022-08-27T17:50:18.373Z,98690.16
2022-08-27T17:51:56.357Z,98686.75
2022-08-27T17:53:29.576Z,98703.94
2022-08-27T17:55:02.942Z,98702.44
2022-08-27T17:56:39.447Z,98703.47
2022-08-27T17:58:14.064Z,98700.38
2022-08-27T17:59:48.141Z,98711.06
2022-08-27T18:01:24.315Z,98698.50
2022-08-27T18:03:02.705Z,98706.50
2022-08-27T18:04:36.022Z,98709.53
2022-08-27T18:06:09.379Z,98701.09
2022-08-27T18:07:43.134Z,98714.69
2022-08-27T18:09:16.672Z,98708.22
2022-08-27T18:10:50.022Z,98712.47
2022-08-27T18:12:27.103Z,98714.03
2022-08-27T18:14:05.029Z,98726.25
2022-08-27T18:15:41.041Z,98728.13
2022-08-27T18:17:14.372Z,98733.84
2022-08-27T18:18:48.471Z,98732.34
2022-08-27T18:20:23.365Z,98732.47
2022-08-27T18:21:56.942Z,98729.28
2022-08-27T18:23:30.183Z,98734.00
2022-08-27T18:25:02.444Z,98728.25
2022-08-27T18:26:36.142Z,98739.41
2022-08-27T18:28:12.137Z,98737.19
2022-08-27T18:29:46.792Z,98742.13
2022-08-27T18:31:27.491Z,98740.16
2022-08-27T18:33:02.114Z,98741.66
2022-08-27T18:34:35.490Z,98751.47
2022-08-27T18:36:15.036Z,98746.34
2022-08-27T18:37:48.941Z,98756.84
2022-08-27T18:39:22.291Z,98752.44
2022-08-27T18:41:00.579Z,98766.78
2022-08-27T18:42:38.006Z,98754.00
2022-08-27T18:44:17.673Z,98764.81
2022-08-27T18:45:52.849Z,98760.41
2022-08-27T18:47:26.693Z,98755.66
2022-08-27T18:48:59.814Z,98766.72
2022-08-27T18:50:34.474Z,98762.13
2022-08-27T18:52:09.032Z,98773.31
2022-08-27T18:53:45.093Z,98763.63
2022-08-27T18:55:20.871Z,98773.38
2022-08-27T18:56:54.677Z,98777.53
2022-08-27T18:58:29.135Z,98775.41
2022-08-27T19:00:02.726Z,98761.41